sensor_id;sensor_type;location;lat;lon;timestamp;P1;durP1;ratioP1;P2;durP2;ratioP2
5813;SDS011;2933;52.302;8.134;2022-07-05T00:00:31;0.97;;;0.97;;
5813;SDS011;2933;52.302;8.134;2022-07-05T00:05:34;1.10;;;1.10;;
5813;SDS011;2933;52.302;8.134;2022-07-05T00:10:36;1.93;;;1.37;;
5813;SDS011;2933;52.302;8.134;2022-07-05T00:15:37;2.80;;;1.50;;
5813;SDS011;2933;52.302;8.134;2022-07-05T00:20:40;1.10;;;1.10;;
5813;SDS011;2933;52.302;8.134;2022-07-05T00:25:42;3.03;;;1.50;;
5813;SDS011;2933;52.302;8.134;2022-07-05T00:30:43;1.80;;;1.10;;
5813;SDS011;2933;52.302;8.134;2022-07-05T00:35:46;1.30;;;1.17;;
5813;SDS011;2933;52.302;8.134;2022-07-05T00:40:48;1.30;;;1.27;;
5813;SDS011;2933;52.302;8.134;2022-07-05T00:45:49;1.83;;;1.17;;
5813;SDS011;2933;52.302;8.134;2022-07-05T00:50:52;1.70;;;1.60;;
5813;SDS011;2933;52.302;8.134;2022-07-05T00:55:54;1.40;;;1.30;;
5813;SDS011;2933;52.302;8.134;2022-07-05T01:00:55;1.43;;;1.10;;
5813;SDS011;2933;52.302;8.134;2022-07-05T01:05:58;1.07;;;1.07;;
5813;SDS011;2933;52.302;8.134;2022-07-05T01:11:02;2.53;;;1.37;;
5813;SDS011;2933;52.302;8.134;2022-07-05T01:16:04;1.60;;;1.50;;
5813;SDS011;2933;52.302;8.134;2022-07-05T01:21:08;1.30;;;1.30;;
5813;SDS011;2933;52.302;8.134;2022-07-05T01:26:15;1.23;;;1.23;;
5813;SDS011;2933;52.302;8.134;2022-07-05T01:31:17;1.57;;;1.47;;
5813;SDS011;2933;52.302;8.134;2022-07-05T01:36:19;1.90;;;1.43;;
5813;SDS011;2933;52.302;8.134;2022-07-05T01:41:22;2.13;;;1.30;;
5813;SDS011;2933;52.302;8.134;2022-07-05T01:46:23;1.30;;;1.30;;
5813;SDS011;2933;52.302;8.134;2022-07-05T01:51:28;2.70;;;2.00;;
5813;SDS011;2933;52.302;8.134;2022-07-05T01:56:35;1.67;;;1.40;;
5813;SDS011;2933;52.302;8.134;2022-07-05T02:01:38;2.00;;;1.30;;
5813;SDS011;2933;52.302;8.134;2022-07-05T02:06:40;1.70;;;1.60;;
5813;SDS011;2933;52.302;8.134;2022-07-05T02:11:43;2.33;;;1.60;;
5813;SDS011;2933;52.302;8.134;2022-07-05T02:16:45;4.60;;;1.80;;
5813;SDS011;2933;52.302;8.134;2022-07-05T02:21:46;1.83;;;1.70;;
5813;SDS011;2933;52.302;8.134;2022-07-05T02:26:49;4.40;;;1.40;;
5813;SDS011;2933;52.302;8.134;2022-07-05T02:31:51;2.17;;;1.53;;
5813;SDS011;2933;52.302;8.134;2022-07-05T02:36:53;1.47;;;1.37;;
5813;SDS011;2933;52.302;8.134;2022-07-05T02:41:56;1.80;;;1.70;;
5813;SDS011;2933;52.302;8.134;2022-07-05T02:46:57;1.90;;;1.80;;
5813;SDS011;2933;52.302;8.134;2022-07-05T02:51:59;1.73;;;1.63;;
5813;SDS011;2933;52.302;8.134;2022-07-05T02:57:02;1.90;;;1.70;;
5813;SDS011;2933;52.302;8.134;2022-07-05T03:02:03;1.70;;;1.60;;
5813;SDS011;2933;52.302;8.134;2022-07-05T03:07:05;1.70;;;1.60;;
5813;SDS011;2933;52.302;8.134;2022-07-05T03:12:08;2.77;;;1.70;;
5813;SDS011;2933;52.302;8.134;2022-07-05T03:17:10;1.67;;;1.57;;
5813;SDS011;2933;52.302;8.134;2022-07-05T03:22:11;2.13;;;1.87;;
5813;SDS011;2933;52.302;8.134;2022-07-05T03:27:14;1.90;;;1.80;;
5813;SDS011;2933;52.302;8.134;2022-07-05T03:32:15;4.50;;;1.73;;
5813;SDS011;2933;52.302;8.134;2022-07-05T03:37:17;2.20;;;2.07;;
5813;SDS011;2933;52.302;8.134;2022-07-05T03:42:20;1.80;;;1.67;;
5813;SDS011;2933;52.302;8.134;2022-07-05T03:47:21;2.93;;;1.83;;
5813;SDS011;2933;52.302;8.134;2022-07-05T03:52:23;1.70;;;1.60;;
5813;SDS011;2933;52.302;8.134;2022-07-05T03:57:26;2.00;;;1.90;;
5813;SDS011;2933;52.302;8.134;2022-07-05T04:02:27;2.20;;;1.93;;
5813;SDS011;2933;52.302;8.134;2022-07-05T04:07:29;1.50;;;1.40;;
5813;SDS011;2933;52.302;8.134;2022-07-05T04:12:32;5.33;;;2.30;;
5813;SDS011;2933;52.302;8.134;2022-07-05T04:17:33;2.03;;;1.93;;
5813;SDS011;2933;52.302;8.134;2022-07-05T04:22:35;2.13;;;1.93;;
5813;SDS011;2933;52.302;8.134;2022-07-05T04:27:38;2.80;;;1.90;;
5813;SDS011;2933;52.302;8.134;2022-07-05T04:32:41;1.97;;;1.87;;
5813;SDS011;2933;52.302;8.134;2022-07-05T04:37:42;2.87;;;2.43;;
5813;SDS011;2933;52.302;8.134;2022-07-05T04:42:46;2.10;;;2.00;;
5813;SDS011;2933;52.302;8.134;2022-07-05T04:47:47;3.50;;;2.00;;
5813;SDS011;2933;52.302;8.134;2022-07-05T04:52:49;2.10;;;2.00;;
5813;SDS011;2933;52.302;8.134;2022-07-05T04:57:52;10.73;;;2.43;;
5813;SDS011;2933;52.302;8.134;2022-07-05T05:02:53;2.20;;;2.10;;
5813;SDS011;2933;52.302;8.134;2022-07-05T05:07:55;2.40;;;2.30;;
5813;SDS011;2933;52.302;8.134;2022-07-05T05:12:58;3.10;;;2.60;;
5813;SDS011;2933;52.302;8.134;2022-07-05T05:17:59;5.47;;;2.67;;
5813;SDS011;2933;52.302;8.134;2022-07-05T05:23:02;3.10;;;2.60;;
5813;SDS011;2933;52.302;8.134;2022-07-05T05:28:05;2.23;;;2.13;;
5813;SDS011;2933;52.302;8.134;2022-07-05T05:33:06;3.77;;;2.30;;
5813;SDS011;2933;52.302;8.134;2022-07-05T05:38:08;2.20;;;2.10;;
5813;SDS011;2933;52.302;8.134;2022-07-05T05:43:11;2.60;;;2.40;;
5813;SDS011;2933;52.302;8.134;2022-07-05T05:48:12;2.63;;;2.10;;
5813;SDS011;2933;52.302;8.134;2022-07-05T05:53:14;2.10;;;2.00;;
5813;SDS011;2933;52.302;8.134;2022-07-05T05:58:17;3.17;;;2.20;;
5813;SDS011;2933;52.302;8.134;2022-07-05T06:03:20;2.23;;;1.97;;
5813;SDS011;2933;52.302;8.134;2022-07-05T06:08:23;2.50;;;1.87;;
5813;SDS011;2933;52.302;8.134;2022-07-05T06:13:27;2.23;;;2.00;;
5813;SDS011;2933;52.302;8.134;2022-07-05T06:18:29;2.50;;;1.70;;
5813;SDS011;2933;52.302;8.134;2022-07-05T06:23:30;2.30;;;1.73;;
5813;SDS011;2933;52.302;8.134;2022-07-05T06:28:33;2.83;;;1.40;;
5813;SDS011;2933;52.302;8.134;2022-07-05T06:33:35;1.60;;;1.50;;
5813;SDS011;2933;52.302;8.134;2022-07-05T06:38:37;1.17;;;1.10;;
5813;SDS011;2933;52.302;8.134;2022-07-05T06:43:40;4.53;;;1.20;;
5813;SDS011;2933;52.302;8.134;2022-07-05T06:48:41;1.20;;;1.20;;
5813;SDS011;2933;52.302;8.134;2022-07-05T06:53:43;1.47;;;1.37;;
5813;SDS011;2933;52.302;8.134;2022-07-05T06:58:45;1.50;;;1.40;;
5813;SDS011;2933;52.302;8.134;2022-07-05T07:03:47;1.50;;;1.40;;
5813;SDS011;2933;52.302;8.134;2022-07-05T07:08:48;5.03;;;1.33;;
5813;SDS011;2933;52.302;8.134;2022-07-05T07:14:09;1.53;;;1.43;;
5813;SDS011;2933;52.302;8.134;2022-07-05T07:19:10;1.00;;;1.00;;
5813;SDS011;2933;52.302;8.134;2022-07-05T07:24:12;1.30;;;1.20;;
5813;SDS011;2933;52.302;8.134;2022-07-05T07:29:16;4.20;;;1.40;;
5813;SDS011;2933;52.302;8.134;2022-07-05T07:34:17;1.20;;;1.10;;
5813;SDS011;2933;52.302;8.134;2022-07-05T07:39:19;0.77;;;0.77;;
5813;SDS011;2933;52.302;8.134;2022-07-05T07:44:22;0.80;;;0.80;;
5813;SDS011;2933;52.302;8.134;2022-07-05T07:49:24;0.80;;;0.80;;
5813;SDS011;2933;52.302;8.134;2022-07-05T07:54:25;1.30;;;0.80;;
5813;SDS011;2933;52.302;8.134;2022-07-05T07:59:28;3.13;;;0.90;;
5813;SDS011;2933;52.302;8.134;2022-07-05T08:04:30;4.90;;;0.80;;
5813;SDS011;2933;52.302;8.134;2022-07-05T08:09:31;1.70;;;0.60;;
5813;SDS011;2933;52.302;8.134;2022-07-05T08:14:34;1.60;;;1.30;;
5813;SDS011;2933;52.302;8.134;2022-07-05T08:19:36;0.70;;;0.70;;
5813;SDS011;2933;52.302;8.134;2022-07-05T08:24:55;0.80;;;0.70;;
5813;SDS011;2933;52.302;8.134;2022-07-05T08:29:58;1.27;;;0.90;;
5813;SDS011;2933;52.302;8.134;2022-07-05T08:35:00;5.50;;;0.63;;
5813;SDS011;2933;52.302;8.134;2022-07-05T08:40:01;0.67;;;0.67;;
5813;SDS011;2933;52.302;8.134;2022-07-05T08:45:09;0.60;;;0.60;;
5813;SDS011;2933;52.302;8.134;2022-07-05T08:50:12;0.60;;;0.50;;
5813;SDS011;2933;52.302;8.134;2022-07-05T08:55:15;3.63;;;0.80;;
5813;SDS011;2933;52.302;8.134;2022-07-05T09:00:18;0.73;;;0.73;;
5813;SDS011;2933;52.302;8.134;2022-07-05T09:05:19;2.43;;;0.90;;
5813;SDS011;2933;52.302;8.134;2022-07-05T09:10:21;1.37;;;0.80;;
5813;SDS011;2933;52.302;8.134;2022-07-05T09:15:27;1.00;;;0.80;;
5813;SDS011;2933;52.302;8.134;2022-07-05T09:20:29;0.73;;;0.73;;
5813;SDS011;2933;52.302;8.134;2022-07-05T09:25:31;1.57;;;0.80;;
5813;SDS011;2933;52.302;8.134;2022-07-05T09:30:35;1.20;;;0.70;;
5813;SDS011;2933;52.302;8.134;2022-07-05T09:35:38;0.57;;;0.57;;
5813;SDS011;2933;52.302;8.134;2022-07-05T09:40:45;1.00;;;0.80;;
5813;SDS011;2933;52.302;8.134;2022-07-05T09:45:56;3.30;;;0.80;;
5813;SDS011;2933;52.302;8.134;2022-07-05T09:51:05;0.53;;;0.53;;
5813;SDS011;2933;52.302;8.134;2022-07-05T09:56:08;6.00;;;0.80;;
5813;SDS011;2933;52.302;8.134;2022-07-05T10:01:26;4.77;;;0.70;;
5813;SDS011;2933;52.302;8.134;2022-07-05T10:06:31;0.77;;;0.77;;
5813;SDS011;2933;52.302;8.134;2022-07-05T10:11:33;0.90;;;0.90;;
5813;SDS011;2933;52.302;8.134;2022-07-05T10:16:40;0.97;;;0.70;;
5813;SDS011;2933;52.302;8.134;2022-07-05T10:21:45;2.10;;;0.80;;
5813;SDS011;2933;52.302;8.134;2022-07-05T10:26:47;0.87;;;0.87;;
5813;SDS011;2933;52.302;8.134;2022-07-05T10:31:51;1.23;;;0.80;;
5813;SDS011;2933;52.302;8.134;2022-07-05T10:36:53;0.90;;;0.90;;
5813;SDS011;2933;52.302;8.134;2022-07-05T10:41:54;1.17;;;0.70;;
5813;SDS011;2933;52.302;8.134;2022-07-05T10:47:07;0.70;;;0.70;;
5813;SDS011;2933;52.302;8.134;2022-07-05T10:52:22;3.50;;;0.70;;
5813;SDS011;2933;52.302;8.134;2022-07-05T10:57:24;1.20;;;0.70;;
5813;SDS011;2933;52.302;8.134;2022-07-05T11:02:28;1.37;;;0.97;;
5813;SDS011;2933;52.302;8.134;2022-07-05T11:12:58;1.53;;;0.80;;
5813;SDS011;2933;52.302;8.134;2022-07-05T11:18:14;0.80;;;0.80;;
5813;SDS011;2933;52.302;8.134;2022-07-05T11:23:16;0.60;;;0.60;;
5813;SDS011;2933;52.302;8.134;2022-07-05T11:28:28;1.30;;;0.80;;
5813;SDS011;2933;52.302;8.134;2022-07-05T11:33:44;1.27;;;0.63;;
5813;SDS011;2933;52.302;8.134;2022-07-05T11:44:12;4.00;;;0.70;;
5813;SDS011;2933;52.302;8.134;2022-07-05T11:49:22;0.80;;;0.80;;
5813;SDS011;2933;52.302;8.134;2022-07-05T11:54:24;6.20;;;0.80;;
5813;SDS011;2933;52.302;8.134;2022-07-05T11:59:27;2.20;;;1.20;;
5813;SDS011;2933;52.302;8.134;2022-07-05T12:04:30;0.67;;;0.67;;
5813;SDS011;2933;52.302;8.134;2022-07-05T12:09:32;0.60;;;0.60;;
5813;SDS011;2933;52.302;8.134;2022-07-05T12:14:48;2.13;;;0.70;;
5813;SDS011;2933;52.302;8.134;2022-07-05T12:19:53;0.90;;;0.80;;
5813;SDS011;2933;52.302;8.134;2022-07-05T12:24:55;0.77;;;0.77;;
5813;SDS011;2933;52.302;8.134;2022-07-05T12:29:58;3.07;;;0.90;;
5813;SDS011;2933;52.302;8.134;2022-07-05T12:35:03;0.80;;;0.80;;
5813;SDS011;2933;52.302;8.134;2022-07-05T12:40:06;0.80;;;0.80;;
5813;SDS011;2933;52.302;8.134;2022-07-05T12:45:09;0.77;;;0.77;;
5813;SDS011;2933;52.302;8.134;2022-07-05T12:50:13;0.80;;;0.77;;
5813;SDS011;2933;52.302;8.134;2022-07-05T12:55:15;0.87;;;0.87;;
5813;SDS011;2933;52.302;8.134;2022-07-05T13:00:34;5.70;;;0.70;;
5813;SDS011;2933;52.302;8.134;2022-07-05T13:05:37;4.83;;;0.60;;
5813;SDS011;2933;52.302;8.134;2022-07-05T13:10:45;9.17;;;1.33;;
5813;SDS011;2933;52.302;8.134;2022-07-05T13:15:47;0.73;;;0.73;;
5813;SDS011;2933;52.302;8.134;2022-07-05T13:20:50;6.30;;;0.80;;
5813;SDS011;2933;52.302;8.134;2022-07-05T13:25:53;0.80;;;0.80;;
5813;SDS011;2933;52.302;8.134;2022-07-05T13:30:54;0.90;;;0.80;;
5813;SDS011;2933;52.302;8.134;2022-07-05T13:35:57;3.60;;;0.77;;
5813;SDS011;2933;52.302;8.134;2022-07-05T13:40:59;1.20;;;0.90;;
5813;SDS011;2933;52.302;8.134;2022-07-05T13:46:00;0.70;;;0.70;;
5813;SDS011;2933;52.302;8.134;2022-07-05T13:51:03;1.53;;;0.90;;
5813;SDS011;2933;52.302;8.134;2022-07-05T13:56:05;2.10;;;0.70;;
5813;SDS011;2933;52.302;8.134;2022-07-05T14:01:07;0.63;;;0.60;;
5813;SDS011;2933;52.302;8.134;2022-07-05T14:06:10;0.87;;;0.87;;
5813;SDS011;2933;52.302;8.134;2022-07-05T14:11:11;1.43;;;0.80;;
5813;SDS011;2933;52.302;8.134;2022-07-05T14:16:13;0.80;;;0.80;;
5813;SDS011;2933;52.302;8.134;2022-07-05T14:21:16;2.40;;;1.07;;
5813;SDS011;2933;52.302;8.134;2022-07-05T14:26:18;0.97;;;0.90;;
5813;SDS011;2933;52.302;8.134;2022-07-05T14:31:19;0.90;;;0.87;;
5813;SDS011;2933;52.302;8.134;2022-07-05T14:36:22;2.40;;;1.10;;
5813;SDS011;2933;52.302;8.134;2022-07-05T14:41:24;3.13;;;1.20;;
5813;SDS011;2933;52.302;8.134;2022-07-05T14:46:25;2.30;;;1.20;;
5813;SDS011;2933;52.302;8.134;2022-07-05T14:51:28;3.60;;;1.17;;
5813;SDS011;2933;52.302;8.134;2022-07-05T14:56:30;1.17;;;0.90;;
5813;SDS011;2933;52.302;8.134;2022-07-05T15:01:31;1.40;;;1.30;;
5813;SDS011;2933;52.302;8.134;2022-07-05T15:06:34;1.57;;;1.13;;
5813;SDS011;2933;52.302;8.134;2022-07-05T15:11:35;1.60;;;0.93;;
5813;SDS011;2933;52.302;8.134;2022-07-05T15:16:37;1.33;;;1.00;;
5813;SDS011;2933;52.302;8.134;2022-07-05T15:21:41;3.63;;;1.20;;
5813;SDS011;2933;52.302;8.134;2022-07-05T15:26:42;7.30;;;1.30;;
5813;SDS011;2933;52.302;8.134;2022-07-05T15:31:44;3.67;;;1.20;;
5813;SDS011;2933;52.302;8.134;2022-07-05T15:36:47;3.37;;;0.80;;
5813;SDS011;2933;52.302;8.134;2022-07-05T15:41:49;3.90;;;1.13;;
5813;SDS011;2933;52.302;8.134;2022-07-05T15:46:50;2.23;;;1.10;;
5813;SDS011;2933;52.302;8.134;2022-07-05T15:52:04;1.67;;;0.70;;
5813;SDS011;2933;52.302;8.134;2022-07-05T15:57:06;1.10;;;1.00;;
5813;SDS011;2933;52.302;8.134;2022-07-05T16:02:07;1.10;;;1.10;;
5813;SDS011;2933;52.302;8.134;2022-07-05T16:07:10;3.43;;;1.20;;
5813;SDS011;2933;52.302;8.134;2022-07-05T16:12:13;0.80;;;0.80;;
5813;SDS011;2933;52.302;8.134;2022-07-05T16:17:14;4.87;;;1.20;;
5813;SDS011;2933;52.302;8.134;2022-07-05T16:22:17;1.00;;;1.00;;
5813;SDS011;2933;52.302;8.134;2022-07-05T16:27:19;1.07;;;1.00;;
5813;SDS011;2933;52.302;8.134;2022-07-05T16:32:20;0.90;;;0.90;;
5813;SDS011;2933;52.302;8.134;2022-07-05T16:37:23;1.93;;;1.20;;
5813;SDS011;2933;52.302;8.134;2022-07-05T16:42:25;1.97;;;0.97;;
5813;SDS011;2933;52.302;8.134;2022-07-05T16:47:26;0.90;;;0.90;;
5813;SDS011;2933;52.302;8.134;2022-07-05T16:52:29;10.17;;;1.00;;
5813;SDS011;2933;52.302;8.134;2022-07-05T16:57:30;1.10;;;0.80;;
5813;SDS011;2933;52.302;8.134;2022-07-05T17:02:32;0.60;;;0.60;;
5813;SDS011;2933;52.302;8.134;2022-07-05T17:07:38;1.20;;;1.00;;
5813;SDS011;2933;52.302;8.134;2022-07-05T17:12:39;0.80;;;0.80;;
5813;SDS011;2933;52.302;8.134;2022-07-05T17:17:41;1.53;;;0.93;;
5813;SDS011;2933;52.302;8.134;2022-07-05T17:22:43;0.63;;;0.63;;
5813;SDS011;2933;52.302;8.134;2022-07-05T17:27:45;2.40;;;0.73;;
5813;SDS011;2933;52.302;8.134;2022-07-05T17:32:46;0.73;;;0.70;;
5813;SDS011;2933;52.302;8.134;2022-07-05T17:37:49;2.77;;;1.13;;
5813;SDS011;2933;52.302;8.134;2022-07-05T17:42:51;1.87;;;0.60;;
5813;SDS011;2933;52.302;8.134;2022-07-05T17:47:52;2.20;;;0.80;;
5813;SDS011;2933;52.302;8.134;2022-07-05T17:52:55;2.10;;;0.83;;
5813;SDS011;2933;52.302;8.134;2022-07-05T17:57:57;2.47;;;0.90;;
5813;SDS011;2933;52.302;8.134;2022-07-05T18:02:59;2.43;;;0.70;;
5813;SDS011;2933;52.302;8.134;2022-07-05T18:08:02;1.07;;;0.63;;
5813;SDS011;2933;52.302;8.134;2022-07-05T18:13:04;0.90;;;0.80;;
5813;SDS011;2933;52.302;8.134;2022-07-05T18:18:06;0.60;;;0.60;;
5813;SDS011;2933;52.302;8.134;2022-07-05T18:23:09;1.17;;;0.90;;
5813;SDS011;2933;52.302;8.134;2022-07-05T18:28:11;2.93;;;0.87;;
5813;SDS011;2933;52.302;8.134;2022-07-05T18:33:13;1.63;;;0.60;;
5813;SDS011;2933;52.302;8.134;2022-07-05T18:38:16;5.80;;;0.90;;
5813;SDS011;2933;52.302;8.134;2022-07-05T18:43:17;1.50;;;1.23;;
5813;SDS011;2933;52.302;8.134;2022-07-05T18:48:19;6.27;;;0.90;;
5813;SDS011;2933;52.302;8.134;2022-07-05T18:53:22;2.97;;;0.63;;
5813;SDS011;2933;52.302;8.134;2022-07-05T18:58:23;3.40;;;0.90;;
5813;SDS011;2933;52.302;8.134;2022-07-05T19:03:25;2.83;;;0.93;;
5813;SDS011;2933;52.302;8.134;2022-07-05T19:08:28;5.43;;;0.97;;
5813;SDS011;2933;52.302;8.134;2022-07-05T19:13:46;3.13;;;0.90;;
5813;SDS011;2933;52.302;8.134;2022-07-05T19:18:48;1.20;;;0.90;;
5813;SDS011;2933;52.302;8.134;2022-07-05T19:23:51;1.10;;;1.00;;
5813;SDS011;2933;52.302;8.134;2022-07-05T19:28:53;1.67;;;0.83;;
5813;SDS011;2933;52.302;8.134;2022-07-05T19:33:54;1.63;;;1.10;;
5813;SDS011;2933;52.302;8.134;2022-07-05T19:38:57;2.00;;;0.80;;
5813;SDS011;2933;52.302;8.134;2022-07-05T19:43:59;1.43;;;0.90;;
5813;SDS011;2933;52.302;8.134;2022-07-05T19:49:01;2.70;;;0.90;;
5813;SDS011;2933;52.302;8.134;2022-07-05T19:54:04;2.73;;;0.77;;
5813;SDS011;2933;52.302;8.134;2022-07-05T19:59:05;1.90;;;0.80;;
5813;SDS011;2933;52.302;8.134;2022-07-05T20:04:07;3.50;;;1.20;;
5813;SDS011;2933;52.302;8.134;2022-07-05T20:09:12;2.00;;;0.83;;
5813;SDS011;2933;52.302;8.134;2022-07-05T20:14:14;4.00;;;1.00;;
5813;SDS011;2933;52.302;8.134;2022-07-05T20:19:17;2.40;;;0.70;;
5813;SDS011;2933;52.302;8.134;2022-07-05T20:24:20;2.27;;;1.10;;
5813;SDS011;2933;52.302;8.134;2022-07-05T20:29:21;1.63;;;1.00;;
5813;SDS011;2933;52.302;8.134;2022-07-05T20:34:25;3.40;;;1.00;;
5813;SDS011;2933;52.302;8.134;2022-07-05T20:39:28;4.03;;;0.97;;
5813;SDS011;2933;52.302;8.134;2022-07-05T20:44:30;3.73;;;1.63;;
5813;SDS011;2933;52.302;8.134;2022-07-05T20:49:32;1.60;;;0.97;;
5813;SDS011;2933;52.302;8.134;2022-07-05T20:54:34;3.17;;;1.20;;
5813;SDS011;2933;52.302;8.134;2022-07-05T20:59:36;4.30;;;1.17;;
5813;SDS011;2933;52.302;8.134;2022-07-05T21:04:38;1.73;;;0.90;;
5813;SDS011;2933;52.302;8.134;2022-07-05T21:09:41;0.83;;;0.80;;
5813;SDS011;2933;52.302;8.134;2022-07-05T21:14:42;4.43;;;1.20;;
5813;SDS011;2933;52.302;8.134;2022-07-05T21:19:44;1.83;;;0.80;;
5813;SDS011;2933;52.302;8.134;2022-07-05T21:24:47;1.33;;;1.00;;
5813;SDS011;2933;52.302;8.134;2022-07-05T21:29:49;0.90;;;0.90;;
5813;SDS011;2933;52.302;8.134;2022-07-05T21:34:50;4.00;;;1.13;;
5813;SDS011;2933;52.302;8.134;2022-07-05T21:39:53;0.70;;;0.60;;
5813;SDS011;2933;52.302;8.134;2022-07-05T21:44:55;3.30;;;1.13;;
5813;SDS011;2933;52.302;8.134;2022-07-05T21:49:56;0.80;;;0.80;;
5813;SDS011;2933;52.302;8.134;2022-07-05T21:54:59;1.77;;;1.67;;
5813;SDS011;2933;52.302;8.134;2022-07-05T22:00:01;1.37;;;0.90;;
5813;SDS011;2933;52.302;8.134;2022-07-05T22:05:22;1.40;;;1.20;;
5813;SDS011;2933;52.302;8.134;2022-07-05T22:10:25;2.30;;;1.13;;
5813;SDS011;2933;52.302;8.134;2022-07-05T22:15:26;3.73;;;1.40;;
5813;SDS011;2933;52.302;8.134;2022-07-05T22:20:28;2.23;;;1.03;;
5813;SDS011;2933;52.302;8.134;2022-07-05T22:25:31;1.43;;;1.03;;
5813;SDS011;2933;52.302;8.134;2022-07-05T22:30:32;0.80;;;0.80;;
5813;SDS011;2933;52.302;8.134;2022-07-05T22:35:34;0.97;;;0.80;;
5813;SDS011;2933;52.302;8.134;2022-07-05T22:40:37;1.13;;;1.00;;
5813;SDS011;2933;52.302;8.134;2022-07-05T22:45:38;1.53;;;1.00;;
5813;SDS011;2933;52.302;8.134;2022-07-05T22:50:40;1.17;;;1.00;;
5813;SDS011;2933;52.302;8.134;2022-07-05T22:55:43;2.53;;;1.57;;
5813;SDS011;2933;52.302;8.134;2022-07-05T23:00:44;2.83;;;0.93;;
5813;SDS011;2933;52.302;8.134;2022-07-05T23:05:46;1.10;;;1.10;;
5813;SDS011;2933;52.302;8.134;2022-07-05T23:10:49;1.00;;;1.00;;
5813;SDS011;2933;52.302;8.134;2022-07-05T23:15:50;1.20;;;1.00;;
5813;SDS011;2933;52.302;8.134;2022-07-05T23:20:52;2.83;;;1.30;;
5813;SDS011;2933;52.302;8.134;2022-07-05T23:25:54;3.73;;;1.17;;
5813;SDS011;2933;52.302;8.134;2022-07-05T23:30:56;1.87;;;1.10;;
5813;SDS011;2933;52.302;8.134;2022-07-05T23:35:57;2.27;;;1.23;;
5813;SDS011;2933;52.302;8.134;2022-07-05T23:41:00;1.40;;;1.30;;
5813;SDS011;2933;52.302;8.134;2022-07-05T23:46:02;1.73;;;1.40;;
5813;SDS011;2933;52.302;8.134;2022-07-05T23:51:03;2.03;;;1.13;;
5813;SDS011;2933;52.302;8.134;2022-07-05T23:56:06;1.70;;;0.97;;
